createdAt,value
2023-04-19T00:01:37.924Z,13.00
2023-04-19T00:04:04.864Z,13.93
2023-04-19T00:06:32.013Z,14.52
2023-04-19T00:08:58.780Z,14.52
2023-04-19T00:11:25.631Z,15.55
2023-04-19T00:13:52.466Z,14.00
2023-04-19T00:16:19.316Z,14.95
2023-04-19T00:18:46.798Z,14.30
2023-04-19T00:21:13.577Z,14.57
2023-04-19T00:23:40.351Z,13.02
2023-04-19T00:26:07.090Z,15.38
2023-04-19T00:28:34.154Z,15.45
2023-04-19T00:31:01.003Z,14.50
2023-04-19T00:33:27.739Z,14.55
2023-04-19T00:35:54.487Z,14.45
2023-04-19T00:38:21.277Z,14.50
2023-04-19T00:40:47.983Z,15.82
2023-04-19T00:43:19.694Z,14.30
2023-04-19T00:45:46.864Z,16.17
2023-04-19T00:48:13.730Z,14.98
2023-04-19T00:50:42.797Z,14.68
2023-04-19T00:53:09.545Z,17.20
2023-04-19T00:55:36.509Z,12.95
2023-04-19T00:58:03.224Z,16.20
2023-04-19T01:00:29.957Z,15.68
2023-04-19T01:02:56.795Z,14.70
2023-04-19T01:05:24.659Z,15.23
2023-04-19T01:07:51.622Z,15.15
2023-04-19T01:10:18.608Z,16.63
2023-04-19T01:12:45.810Z,15.73
2023-04-19T01:15:12.556Z,15.57
2023-04-19T01:17:39.242Z,15.75
2023-04-19T01:20:08.018Z,15.60
2023-04-19T01:22:37.656Z,15.57
2023-04-19T01:25:04.952Z,15.20
2023-04-19T01:27:31.620Z,17.13
2023-04-19T01:29:58.352Z,15.10
2023-04-19T01:32:26.391Z,15.93
2023-04-19T01:34:53.125Z,18.63
2023-04-19T01:37:19.821Z,15.02
2023-04-19T01:39:46.803Z,14.73
2023-04-19T01:42:13.527Z,16.90
2023-04-19T01:44:40.236Z,15.45
2023-04-19T01:47:07.026Z,15.70
2023-04-19T01:49:33.753Z,16.05
2023-04-19T01:52:00.854Z,16.38
2023-04-19T01:54:27.619Z,15.57
2023-04-19T01:56:54.329Z,18.15
2023-04-19T01:59:21.009Z,19.13
2023-04-19T02:01:47.822Z,17.15
2023-04-19T02:04:15.068Z,16.25
2023-04-19T02:06:42.082Z,17.77
2023-04-19T02:09:08.768Z,16.08
2023-04-19T02:11:35.508Z,17.75
2023-04-19T02:14:02.248Z,16.45
2023-04-19T02:16:29.170Z,15.75
2023-04-19T02:18:55.968Z,19.27
2023-04-19T02:21:22.664Z,17.20
2023-04-19T02:23:49.442Z,16.88
2023-04-19T02:26:16.204Z,17.70
2023-04-19T02:28:43.514Z,16.17
2023-04-19T02:31:10.412Z,19.10
2023-04-19T02:33:37.110Z,17.75
2023-04-19T02:36:04.168Z,16.85
2023-04-19T02:38:30.869Z,19.33
2023-04-19T02:40:57.678Z,17.15
2023-04-19T02:43:24.452Z,16.92
2023-04-19T02:45:51.561Z,17.15
2023-04-19T02:48:18.351Z,19.98
2023-04-19T02:50:45.154Z,18.55
2023-04-19T02:53:11.930Z,19.35
2023-04-19T02:55:38.681Z,20.13
2023-04-19T02:58:05.585Z,21.13
2023-04-19T03:00:32.315Z,20.52
2023-04-19T03:02:59.377Z,19.00
2023-04-19T03:05:26.325Z,19.70
2023-04-19T03:07:53.029Z,19.10
2023-04-19T03:10:19.845Z,19.08
2023-04-19T03:12:46.673Z,20.48
2023-04-19T03:15:13.537Z,19.80
2023-04-19T03:17:40.541Z,20.33
2023-04-19T03:20:11.789Z,21.33
2023-04-19T03:22:38.671Z,21.02
2023-04-19T03:25:05.825Z,21.15
2023-04-19T03:27:36.156Z,21.15
2023-04-19T03:30:02.938Z,21.02
2023-04-19T03:32:29.631Z,20.23
2023-04-19T03:34:56.401Z,21.15
2023-04-19T03:37:23.131Z,22.02
2023-04-19T03:39:49.820Z,21.63
2023-04-19T03:42:16.645Z,19.85
2023-04-19T03:44:43.308Z,21.95
2023-04-19T03:47:09.958Z,22.77
2023-04-19T03:49:36.651Z,21.75
2023-04-19T03:52:03.454Z,21.13
2023-04-19T03:54:30.136Z,22.65
2023-04-19T03:56:57.152Z,22.77
2023-04-19T03:59:26.162Z,20.55
2023-04-19T04:01:52.953Z,21.92
2023-04-19T04:04:20.151Z,22.40
2023-04-19T04:06:47.179Z,22.95
2023-04-19T04:09:13.876Z,21.42
2023-04-19T04:11:40.705Z,22.55
2023-04-19T04:14:07.392Z,22.85
2023-04-19T04:16:34.107Z,21.70
2023-04-19T04:19:00.934Z,22.55
2023-04-19T04:21:28.279Z,23.65
2023-04-19T04:23:54.968Z,22.00
2023-04-19T04:26:21.912Z,22.38
2023-04-19T04:28:48.732Z,24.20
2023-04-19T04:31:18.145Z,26.05
2023-04-19T04:33:45.936Z,23.13
2023-04-19T04:36:12.838Z,21.98
2023-04-19T04:38:39.672Z,22.10
2023-04-19T04:41:06.466Z,24.65
2023-04-19T04:43:34.624Z,23.48
2023-04-19T04:46:01.937Z,23.05
2023-04-19T04:48:28.745Z,22.10
2023-04-19T04:50:55.562Z,23.73
2023-04-19T04:53:22.280Z,22.40
2023-04-19T04:55:48.975Z,21.48
2023-04-19T04:58:15.714Z,24.52
2023-04-19T05:00:42.439Z,22.83
2023-04-19T05:03:09.321Z,23.20
2023-04-19T05:05:36.241Z,20.85
2023-04-19T05:08:03.139Z,23.88
2023-04-19T05:10:29.880Z,23.67
2023-04-19T05:12:56.597Z,20.38
2023-04-19T05:15:23.606Z,21.70
2023-04-19T05:17:50.425Z,21.65
2023-04-19T05:20:17.198Z,22.27
2023-04-19T05:22:43.956Z,24.85
2023-04-19T05:25:10.869Z,22.42
2023-04-19T05:27:37.625Z,21.63
2023-04-19T05:30:06.077Z,21.13
2023-04-19T05:32:32.888Z,22.13
2023-04-19T05:34:59.606Z,21.90
2023-04-19T05:37:26.274Z,22.08
2023-04-19T05:39:53.197Z,22.00
2023-04-19T05:42:19.939Z,23.17
2023-04-19T05:44:46.709Z,23.30
2023-04-19T05:47:13.608Z,22.80
2023-04-19T05:49:41.385Z,21.83
2023-04-19T05:52:09.488Z,21.63
2023-04-19T05:54:36.628Z,22.98
2023-04-19T05:57:03.715Z,22.55
2023-04-19T05:59:30.531Z,23.65
2023-04-19T06:01:57.462Z,21.38
2023-04-19T06:04:24.869Z,21.50
2023-04-19T06:06:52.025Z,22.25
2023-04-19T06:09:19.395Z,20.17
2023-04-19T06:11:50.566Z,23.23
2023-04-19T06:14:19.015Z,22.63
2023-04-19T06:16:46.172Z,21.52
2023-04-19T06:19:13.556Z,23.08
2023-04-19T06:21:40.498Z,21.15
2023-04-19T06:24:07.736Z,22.00
2023-04-19T06:26:34.424Z,21.83
2023-04-19T06:29:01.426Z,20.80
2023-04-19T06:31:28.292Z,20.05
2023-04-19T06:33:55.231Z,19.83
2023-04-19T06:36:22.284Z,22.63
2023-04-19T06:38:50.087Z,18.70
2023-04-19T06:41:17.768Z,19.23
2023-04-19T06:43:44.909Z,20.23
2023-04-19T06:46:14.044Z,20.40
2023-04-19T06:48:41.118Z,19.38
2023-04-19T06:51:08.058Z,19.80
2023-04-19T06:53:35.737Z,20.15
2023-04-19T06:56:03.020Z,21.08
2023-04-19T06:58:30.118Z,18.80
2023-04-19T07:00:57.705Z,20.00
2023-04-19T07:03:24.871Z,20.67
2023-04-19T07:05:52.754Z,19.73
2023-04-19T07:08:19.536Z,22.20
2023-04-19T07:10:46.281Z,21.35
2023-04-19T07:13:13.246Z,20.05
2023-04-19T07:15:40.267Z,19.02
2023-04-19T07:18:07.326Z,20.92
2023-04-19T07:20:34.404Z,21.85
2023-04-19T07:23:01.179Z,19.55
2023-04-19T07:25:27.892Z,18.77
2023-04-19T07:27:55.048Z,20.15
2023-04-19T07:30:21.842Z,24.10
2023-04-19T07:32:48.802Z,19.17
2023-04-19T07:35:15.668Z,19.40
2023-04-19T07:37:42.705Z,20.98
2023-04-19T07:40:10.016Z,19.70
2023-04-19T07:42:36.749Z,21.90
2023-04-19T07:45:03.722Z,19.35
2023-04-19T07:47:31.324Z,22.15
2023-04-19T07:49:58.196Z,21.80
2023-04-19T07:52:24.993Z,21.10
2023-04-19T07:54:51.767Z,21.23
2023-04-19T07:57:18.603Z,20.10
2023-04-19T07:59:45.315Z,21.27
2023-04-19T08:02:12.252Z,21.23
2023-04-19T08:04:40.072Z,20.05
2023-04-19T08:07:07.197Z,19.88
2023-04-19T08:09:34.546Z,21.30
2023-04-19T08:12:01.633Z,21.20
2023-04-19T08:14:40.090Z,19.35
2023-04-19T08:17:25.611Z,20.15
2023-04-19T08:22:21.830Z,19.77
2023-04-19T08:24:51.992Z,19.35
2023-04-19T08:27:19.077Z,20.38
2023-04-19T08:29:46.148Z,18.02
2023-04-19T08:32:13.097Z,21.10
2023-04-19T08:34:40.334Z,19.38
2023-04-19T08:37:10.266Z,20.20
2023-04-19T08:39:37.072Z,20.38
2023-04-19T08:42:10.410Z,19.08
2023-04-19T08:44:53.836Z,18.98
2023-04-19T08:47:32.245Z,17.15
2023-04-19T08:50:13.880Z,18.25
2023-04-19T08:52:54.885Z,17.88
2023-04-19T08:55:24.161Z,17.00
2023-04-19T08:57:50.982Z,19.80
2023-04-19T09:00:18.332Z,18.23
2023-04-19T09:02:49.272Z,19.90
2023-04-19T09:05:16.836Z,19.83
2023-04-19T09:07:44.350Z,18.23
2023-04-19T09:10:12.633Z,18.52
2023-04-19T09:12:39.938Z,19.45
2023-04-19T09:15:11.471Z,18.45
2023-04-19T09:17:40.896Z,20.52
2023-04-19T09:20:08.506Z,19.88
2023-04-19T09:22:35.279Z,20.40
2023-04-19T09:25:34.313Z,19.15
2023-04-19T09:27:49.009Z,18.45
2023-04-19T09:30:27.837Z,17.58
2023-04-19T09:32:58.135Z,15.40
2023-04-19T09:35:44.126Z,16.75
2023-04-19T09:38:11.531Z,16.92
2023-04-19T09:40:39.362Z,26.85
2023-04-19T09:43:17.925Z,22.65
2023-04-19T09:45:52.771Z,21.63
2023-04-19T09:48:19.622Z,17.52
2023-04-19T09:51:00.232Z,17.42
2023-04-19T09:53:29.868Z,16.02
2023-04-19T09:56:01.191Z,16.50
2023-04-19T09:58:34.509Z,15.13
2023-04-19T10:01:14.102Z,13.98
2023-04-19T10:03:41.866Z,16.05
2023-04-19T10:06:14.518Z,15.00
2023-04-19T10:08:47.577Z,15.10
2023-04-19T10:11:14.264Z,14.93
2023-04-19T10:13:41.044Z,18.20
2023-04-19T10:16:18.154Z,14.93
2023-04-19T10:18:46.053Z,14.30
2023-04-19T10:21:12.867Z,13.27
2023-04-19T10:23:39.641Z,13.85
2023-04-19T10:26:07.367Z,13.55
2023-04-19T10:28:34.185Z,13.32
2023-04-19T10:31:02.267Z,13.68
2023-04-19T10:33:31.641Z,13.38
2023-04-19T10:35:59.208Z,13.45
2023-04-19T10:38:48.946Z,13.65
2023-04-19T10:41:17.418Z,12.88
2023-04-19T10:44:08.313Z,12.05
2023-04-19T10:46:36.315Z,12.27
2023-04-19T10:49:04.397Z,11.70
2023-04-19T10:51:36.375Z,14.15
2023-04-19T10:54:07.288Z,13.95
2023-04-19T10:56:34.274Z,11.93
2023-04-19T10:59:13.452Z,14.02
2023-04-19T11:01:53.194Z,11.90
2023-04-19T11:04:44.638Z,12.80
2023-04-19T11:07:11.506Z,11.45
2023-04-19T11:09:39.581Z,11.77
2023-04-19T11:12:16.225Z,12.02
2023-04-19T11:14:53.325Z,12.77
2023-04-19T11:17:33.031Z,11.25
2023-04-19T11:20:07.482Z,11.75
2023-04-19T11:22:45.747Z,12.48
2023-04-19T11:25:19.497Z,12.18
2023-04-19T11:27:47.665Z,10.32
2023-04-19T11:30:16.625Z,12.10
2023-04-19T11:32:53.950Z,12.00
2023-04-19T11:35:27.801Z,11.88
2023-04-19T11:37:55.117Z,11.30
2023-04-19T11:40:22.618Z,11.05
2023-04-19T11:43:00.708Z,10.85
2023-04-19T11:45:32.225Z,10.13
2023-04-19T11:48:00.625Z,12.20
2023-04-19T11:50:31.687Z,11.23
2023-04-19T11:52:59.098Z,10.93
2023-04-19T11:55:26.515Z,12.30
2023-04-19T11:57:53.324Z,9.70
2023-04-19T12:00:27.568Z,10.57
2023-04-19T12:02:54.443Z,10.07
2023-04-19T12:05:21.508Z,10.52
2023-04-19T12:08:05.176Z,10.90
2023-04-19T12:10:32.615Z,10.02
2023-04-19T12:12:59.390Z,10.82
2023-04-19T12:15:44.932Z,9.80
2023-04-19T12:18:11.777Z,10.38
2023-04-19T12:20:39.954Z,8.00
2023-04-19T12:23:11.149Z,8.40
2023-04-19T12:25:37.959Z,9.38
2023-04-19T12:28:04.871Z,9.63
2023-04-19T12:30:31.664Z,9.23
2023-04-19T12:32:58.998Z,9.23
2023-04-19T12:35:26.780Z,9.32
2023-04-19T12:37:54.005Z,7.55
2023-04-19T12:40:21.167Z,7.18
2023-04-19T12:42:48.265Z,7.53
2023-04-19T12:45:15.234Z,7.32
2023-04-19T12:50:37.376Z,6.70
2023-04-19T12:53:04.116Z,7.40
2023-04-19T12:55:30.820Z,7.25
2023-04-19T12:57:57.638Z,6.43
2023-04-19T13:00:24.792Z,6.22
2023-04-19T13:02:51.808Z,6.50
2023-04-19T13:05:18.557Z,7.55
2023-04-19T13:07:45.473Z,6.40
2023-04-19T13:10:12.536Z,6.85
2023-04-19T13:12:39.693Z,7.30
2023-04-19T13:15:07.022Z,5.55
2023-04-19T13:17:33.721Z,6.60
2023-04-19T13:20:00.480Z,6.22
2023-04-19T13:22:27.441Z,6.82
2023-04-19T13:24:54.168Z,5.90
2023-04-19T13:27:21.033Z,6.68
2023-04-19T13:29:47.707Z,7.40
2023-04-19T13:32:14.424Z,6.65
2023-04-19T13:34:41.174Z,7.75
2023-04-19T13:37:08.225Z,8.25
2023-04-19T13:39:35.037Z,7.15
2023-04-19T13:42:02.076Z,7.70
2023-04-19T13:44:29.256Z,8.23
2023-04-19T13:46:56.458Z,7.78
2023-04-19T13:49:23.328Z,7.68
2023-04-19T13:51:51.008Z,8.27
2023-04-19T13:54:19.120Z,7.82
2023-04-19T13:56:46.444Z,8.05
2023-04-19T13:59:13.118Z,8.20
2023-04-19T14:01:39.810Z,8.43
2023-04-19T14:04:06.733Z,8.65
2023-04-19T14:06:33.711Z,8.65
2023-04-19T14:09:00.620Z,9.18
2023-04-19T14:11:27.295Z,9.05
2023-04-19T14:13:54.136Z,7.82
2023-04-19T14:16:21.150Z,9.20
2023-04-19T14:18:48.024Z,7.55
2023-04-19T14:21:15.103Z,8.45
2023-04-19T14:23:41.791Z,7.85
2023-04-19T14:26:08.468Z,8.23
2023-04-19T14:28:35.204Z,8.13
2023-04-19T14:31:02.005Z,7.00
2023-04-19T14:33:28.843Z,7.43
2023-04-19T14:35:55.630Z,8.18
2023-04-19T14:38:22.369Z,6.82
2023-04-19T14:40:49.051Z,7.65
2023-04-19T14:43:18.560Z,6.28
2023-04-19T14:45:45.427Z,6.43
2023-04-19T14:48:12.163Z,5.90
2023-04-19T14:50:38.857Z,6.82
2023-04-19T14:53:05.616Z,6.50
2023-04-19T14:55:32.344Z,6.20
2023-04-19T14:57:59.067Z,7.07
2023-04-19T15:00:25.789Z,6.53
2023-04-19T15:02:52.567Z,6.47
2023-04-19T15:05:19.793Z,6.55
2023-04-19T15:07:46.583Z,7.60
2023-04-19T15:10:13.262Z,6.03
2023-04-19T15:12:39.947Z,6.47
2023-04-19T15:15:07.298Z,5.65
2023-04-19T15:17:34.046Z,6.53
2023-04-19T15:20:01.121Z,6.07
2023-04-19T15:22:27.901Z,5.55
2023-04-19T15:24:54.599Z,5.22
2023-04-19T15:27:21.656Z,6.45
2023-04-19T15:29:48.391Z,5.40
2023-04-19T15:32:15.120Z,8.38
2023-04-19T15:34:41.824Z,5.40
2023-04-19T15:37:09.131Z,6.07
2023-04-19T15:39:35.915Z,6.00
2023-04-19T15:42:03.337Z,5.63
2023-04-19T15:44:30.228Z,5.72
2023-04-19T15:46:57.027Z,4.80
2023-04-19T15:49:23.839Z,5.38
2023-04-19T15:51:50.953Z,5.82
2023-04-19T15:54:17.816Z,4.80
2023-04-19T15:56:44.514Z,5.30
2023-04-19T15:59:11.209Z,5.68
2023-04-19T16:01:38.067Z,4.93
2023-04-19T16:04:05.051Z,4.90
2023-04-19T16:06:31.968Z,4.43
2023-04-19T16:08:58.666Z,5.03
2023-04-19T16:11:25.533Z,4.15
2023-04-19T16:13:52.528Z,4.32
2023-04-19T16:16:19.300Z,4.80
2023-04-19T16:18:47.010Z,4.05
2023-04-19T16:21:13.676Z,4.70
2023-04-19T16:23:40.405Z,4.75
2023-04-19T16:26:07.748Z,3.55
2023-04-19T16:28:34.484Z,5.78
2023-04-19T16:31:01.194Z,4.05
2023-04-19T16:33:28.026Z,3.30
2023-04-19T16:35:54.760Z,3.47
2023-04-19T16:38:21.427Z,3.20
2023-04-19T16:40:48.854Z,4.38
2023-04-19T16:43:15.768Z,3.47
2023-04-19T16:45:42.904Z,3.45
2023-04-19T16:48:09.772Z,3.05
2023-04-19T16:50:36.544Z,3.63
2023-04-19T16:53:03.248Z,3.47
2023-04-19T16:55:29.932Z,3.22
2023-04-19T16:57:56.622Z,3.28
2023-04-19T17:00:23.536Z,5.47
2023-04-19T17:02:50.586Z,5.15
2023-04-19T17:05:17.470Z,3.85
2023-04-19T17:07:44.221Z,5.10
2023-04-19T17:10:11.034Z,2.88
2023-04-19T17:12:37.699Z,3.47
2023-04-19T17:15:04.815Z,3.78
2023-04-19T17:17:31.725Z,3.30
2023-04-19T17:19:58.589Z,4.28
2023-04-19T17:22:25.282Z,3.42
2023-04-19T17:24:54.026Z,4.22
2023-04-19T17:27:20.947Z,3.50
2023-04-19T17:29:47.683Z,3.08
2023-04-19T17:32:14.440Z,3.53
2023-04-19T17:34:41.097Z,4.07
2023-04-19T17:37:07.789Z,4.40
2023-04-19T17:39:34.500Z,3.88
2023-04-19T17:42:01.684Z,3.15
2023-04-19T17:44:28.385Z,4.30
2023-04-19T17:46:55.276Z,4.25
2023-04-19T17:49:22.101Z,4.30
2023-04-19T17:51:49.189Z,4.25
2023-04-19T17:54:16.349Z,3.40
2023-04-19T17:56:43.047Z,3.75
2023-04-19T17:59:09.827Z,4.25
2023-04-19T18:01:36.791Z,3.38
2023-04-19T18:04:03.799Z,3.30
2023-04-19T18:06:31.882Z,3.30
2023-04-19T18:08:58.806Z,4.25
2023-04-19T18:11:28.193Z,3.60
2023-04-19T18:13:55.440Z,3.72
2023-04-19T18:16:22.244Z,4.00
2023-04-19T18:18:49.043Z,4.82
2023-04-19T18:21:16.058Z,3.97
2023-04-19T18:23:42.749Z,3.80
2023-04-19T18:26:09.433Z,3.83
2023-04-19T18:28:37.368Z,3.72
2023-04-19T18:31:05.181Z,4.30
2023-04-19T18:33:31.916Z,4.30
2023-04-19T18:35:58.657Z,4.25
2023-04-19T18:38:25.382Z,3.95
2023-04-19T18:40:52.192Z,3.83
2023-04-19T18:43:18.918Z,4.20
2023-04-19T18:45:45.644Z,3.70
2023-04-19T18:48:12.503Z,3.90
2023-04-19T18:50:39.350Z,4.03
2023-04-19T18:53:06.171Z,4.75
2023-04-19T18:55:32.954Z,3.92
2023-04-19T18:58:01.412Z,3.90
2023-04-19T19:00:28.328Z,3.33
2023-04-19T19:02:55.477Z,3.63
2023-04-19T19:05:22.401Z,4.95
2023-04-19T19:07:49.406Z,3.08
2023-04-19T19:10:20.969Z,2.83
2023-04-19T19:12:49.642Z,2.90
2023-04-19T19:15:16.962Z,3.90
2023-04-19T19:17:48.559Z,3.08
2023-04-19T19:20:16.554Z,2.97
2023-04-19T19:22:43.442Z,2.85
2023-04-19T19:25:11.433Z,3.63
2023-04-19T19:27:38.794Z,2.92
2023-04-19T19:30:08.328Z,4.35
2023-04-19T19:32:35.351Z,2.55
2023-04-19T19:35:05.577Z,3.63
2023-04-19T19:37:36.282Z,3.33
2023-04-19T19:40:06.420Z,2.53
2023-04-19T19:42:34.012Z,3.13
2023-04-19T19:45:02.006Z,2.78
2023-04-19T19:47:31.482Z,2.83
2023-04-19T19:52:28.497Z,2.58
2023-04-19T19:54:55.279Z,3.15
2023-04-19T19:58:14.300Z,3.38
2023-04-19T20:00:36.526Z,2.67
2023-04-19T20:02:59.647Z,3.28
2023-04-19T20:05:27.537Z,2.60
2023-04-19T20:08:05.691Z,2.92
2023-04-19T20:10:32.702Z,2.55
2023-04-19T20:13:01.407Z,3.00
2023-04-19T20:15:28.610Z,2.50
2023-04-19T20:17:55.592Z,2.63
2023-04-19T20:20:22.315Z,2.28
2023-04-19T20:22:49.104Z,2.28
2023-04-19T20:25:15.889Z,2.40
2023-04-19T20:27:42.723Z,2.55
2023-04-19T20:30:09.933Z,2.35
2023-04-19T20:32:36.739Z,3.28
2023-04-19T20:35:08.388Z,2.80
2023-04-19T20:37:39.923Z,2.13
2023-04-19T20:40:10.947Z,2.80
2023-04-19T20:42:38.017Z,2.20
2023-04-19T20:45:06.085Z,2.55
2023-04-19T20:47:33.599Z,2.00
2023-04-19T20:50:00.627Z,2.08
2023-04-19T20:52:27.319Z,2.63
2023-04-19T20:54:56.307Z,2.15
2023-04-19T20:57:23.143Z,2.50
2023-04-19T20:59:52.943Z,2.97
2023-04-19T21:02:19.743Z,2.20
2023-04-19T21:04:46.592Z,2.30
2023-04-19T21:07:13.311Z,2.80
2023-04-19T21:09:40.097Z,2.08
2023-04-19T21:12:06.989Z,2.33
2023-04-19T21:14:34.122Z,2.13
2023-04-19T21:17:01.895Z,3.38
2023-04-19T21:19:29.029Z,1.90
2023-04-19T21:21:55.899Z,2.83
2023-04-19T21:24:22.833Z,4.13
2023-04-19T21:26:49.492Z,1.88
2023-04-19T21:29:16.370Z,2.28
2023-04-19T21:31:43.228Z,2.40
2023-04-19T21:34:09.936Z,2.28
2023-04-19T21:36:36.622Z,2.70
2023-04-19T21:39:04.003Z,2.63
2023-04-19T21:41:30.758Z,3.35
2023-04-19T21:43:57.449Z,2.70
2023-04-19T21:46:24.188Z,2.25
2023-04-19T21:48:52.097Z,2.67
2023-04-19T21:51:20.372Z,3.38
2023-04-19T21:53:47.122Z,1.98
2023-04-19T21:56:13.885Z,2.10
2023-04-19T21:58:40.879Z,2.22
2023-04-19T22:01:07.668Z,2.65
2023-04-19T22:03:34.613Z,2.33
2023-04-19T22:06:02.101Z,2.53
2023-04-19T22:08:30.846Z,2.33
2023-04-19T22:11:00.332Z,3.17
2023-04-19T22:13:28.301Z,2.00
2023-04-19T22:15:57.325Z,2.25
2023-04-19T22:18:24.248Z,3.40
2023-04-19T22:20:52.126Z,2.50
2023-04-19T22:23:19.082Z,2.30
2023-04-19T22:25:46.330Z,2.33
2023-04-19T22:28:13.062Z,2.13
2023-04-19T22:30:39.800Z,2.38
2023-04-19T22:33:06.648Z,2.95
2023-04-19T22:35:33.412Z,2.70
2023-04-19T22:38:00.144Z,1.85
2023-04-19T22:40:26.972Z,1.80
2023-04-19T22:42:53.768Z,3.92
2023-04-19T22:45:20.624Z,2.00
2023-04-19T22:47:47.383Z,2.45
2023-04-19T22:50:14.260Z,2.20
2023-04-19T22:52:41.467Z,2.28
2023-04-19T22:55:08.704Z,2.22
2023-04-19T22:57:35.514Z,1.98
2023-04-19T23:00:04.988Z,2.65
2023-04-19T23:02:31.852Z,2.15
2023-04-19T23:04:58.803Z,3.60
2023-04-19T23:07:26.095Z,2.75
2023-04-19T23:09:54.796Z,2.58
2023-04-19T23:12:22.837Z,3.08
2023-04-19T23:14:50.495Z,2.65
2023-04-19T23:17:18.017Z,2.15
2023-04-19T23:19:44.849Z,2.45
2023-04-19T23:22:11.548Z,2.42
2023-04-19T23:24:38.303Z,3.22
2023-04-19T23:27:05.109Z,2.10
2023-04-19T23:29:31.833Z,2.80
2023-04-19T23:31:58.550Z,2.30
2023-04-19T23:34:25.412Z,1.92
2023-04-19T23:36:52.100Z,3.05
2023-04-19T23:39:19.139Z,2.78
2023-04-19T23:41:46.200Z,1.95
2023-04-19T23:44:12.908Z,2.65
2023-04-19T23:46:39.771Z,2.75
2023-04-19T23:49:08.293Z,2.10
2023-04-19T23:51:36.349Z,1.92
2023-04-19T23:54:03.194Z,2.25
2023-04-19T23:56:29.915Z,2.05
2023-04-19T23:58:57.495Z,2.22
